createdAt,value
2022-09-10T00:01:08.687Z,5.07
2022-09-10T00:03:35.052Z,4.72
2022-09-10T00:06:03.132Z,5.55
2022-09-10T00:08:31.202Z,8.55
2022-09-10T00:11:02.760Z,4.80
2022-09-10T00:13:29.201Z,4.07
2022-09-10T00:15:55.586Z,5.03
2022-09-10T00:18:22.768Z,7.78
2022-09-10T00:20:51.000Z,5.70
2022-09-10T00:23:19.122Z,4.80
2022-09-10T00:25:46.163Z,5.18
2022-09-10T00:28:12.715Z,4.57
2022-09-10T00:30:42.671Z,5.60
2022-09-10T00:33:09.716Z,4.65
2022-09-10T00:35:36.540Z,5.45
2022-09-10T00:38:03.226Z,5.78
2022-09-10T00:40:30.045Z,5.35
2022-09-10T00:42:56.389Z,5.43
2022-09-10T00:45:24.590Z,5.65
2022-09-10T00:47:52.006Z,5.07
2022-09-10T00:50:26.612Z,5.00
2022-09-10T00:52:55.368Z,7.70
2022-09-10T00:55:23.375Z,4.35
2022-09-10T00:57:52.503Z,6.38
2022-09-10T01:00:18.917Z,5.00
2022-09-10T01:02:45.280Z,4.50
2022-09-10T01:05:12.566Z,4.80
2022-09-10T01:07:39.748Z,6.68
2022-09-10T01:10:08.404Z,5.47
2022-09-10T01:12:37.978Z,5.47
2022-09-10T01:15:15.861Z,6.90
2022-09-10T01:17:52.885Z,4.88
2022-09-10T01:20:30.977Z,6.20
2022-09-10T01:23:06.737Z,6.35
2022-09-10T01:25:33.274Z,5.60
2022-09-10T01:28:03.771Z,5.40
2022-09-10T01:30:51.522Z,8.57
2022-09-10T01:33:25.500Z,4.55
2022-09-10T01:35:58.023Z,4.55
2022-09-10T01:38:27.317Z,4.22
2022-09-10T01:40:55.281Z,9.38
2022-09-10T01:43:23.848Z,4.20
2022-09-10T01:46:04.577Z,6.63
2022-09-10T01:48:34.580Z,6.35
2022-09-10T01:51:10.575Z,5.22
2022-09-10T01:53:56.009Z,6.10
2022-09-10T01:56:28.626Z,4.47
2022-09-10T01:59:03.699Z,3.35
2022-09-10T02:01:47.608Z,7.15
2022-09-10T02:04:15.070Z,6.32
2022-09-10T02:06:43.986Z,5.57
2022-09-10T02:09:12.409Z,5.85
2022-09-10T02:11:49.710Z,5.20
2022-09-10T02:14:40.648Z,7.75
2022-09-10T02:17:32.233Z,3.75
2022-09-10T02:19:59.993Z,5.72
2022-09-10T02:22:26.480Z,6.40
2022-09-10T02:24:52.900Z,6.32
2022-09-10T02:27:19.304Z,4.38
2022-09-10T02:29:45.786Z,6.63
2022-09-10T02:32:13.373Z,4.88
2022-09-10T02:34:40.364Z,5.80
2022-09-10T02:37:06.750Z,4.40
2022-09-10T02:39:35.732Z,8.70
2022-09-10T02:42:02.330Z,4.57
2022-09-10T02:44:29.405Z,4.97
2022-09-10T02:46:55.922Z,5.43
2022-09-10T02:49:22.321Z,6.25
2022-09-10T02:51:50.514Z,7.25
2022-09-10T02:54:19.835Z,4.38
2022-09-10T02:56:48.514Z,4.32
2022-09-10T02:59:15.087Z,5.03
2022-09-10T03:01:41.545Z,4.80
2022-09-10T03:04:08.675Z,4.63
2022-09-10T03:06:35.312Z,6.35
2022-09-10T03:09:02.184Z,5.05
2022-09-10T03:11:28.827Z,6.82
2022-09-10T03:13:57.569Z,5.63
2022-09-10T03:16:24.559Z,5.88
2022-09-10T03:18:52.375Z,6.30
2022-09-10T03:21:20.596Z,6.47
2022-09-10T03:23:49.658Z,4.78
2022-09-10T03:26:21.065Z,5.78
2022-09-10T03:28:48.133Z,6.43
2022-09-10T03:31:18.303Z,7.35
2022-09-10T03:33:47.573Z,6.60
2022-09-10T03:36:14.366Z,5.63
2022-09-10T03:38:42.502Z,6.47
2022-09-10T03:41:09.292Z,5.85
2022-09-10T03:43:35.924Z,8.93
2022-09-10T03:46:06.641Z,8.20
2022-09-10T03:48:39.005Z,5.20
2022-09-10T03:51:06.851Z,5.32
2022-09-10T03:53:33.913Z,5.53
2022-09-10T03:56:00.678Z,5.45
2022-09-10T03:58:28.640Z,4.90
2022-09-10T04:00:55.349Z,5.00
2022-09-10T04:03:22.680Z,6.57
2022-09-10T04:05:49.090Z,6.85
2022-09-10T04:08:15.625Z,5.53
2022-09-10T04:10:43.072Z,7.57
2022-09-10T04:13:10.645Z,5.60
2022-09-10T04:15:37.860Z,5.75
2022-09-10T04:18:06.142Z,6.88
2022-09-10T04:20:33.277Z,4.45
2022-09-10T04:23:07.688Z,5.75
2022-09-10T04:25:36.275Z,5.40
2022-09-10T04:28:03.471Z,7.25
2022-09-10T04:30:31.333Z,5.13
2022-09-10T04:33:01.214Z,6.25
2022-09-10T04:35:32.726Z,6.10
2022-09-10T04:38:01.940Z,5.38
2022-09-10T04:40:28.899Z,5.35
2022-09-10T04:42:55.618Z,4.57
2022-09-10T04:45:22.089Z,5.82
2022-09-10T04:47:50.249Z,5.38
2022-09-10T04:50:17.590Z,6.80
2022-09-10T04:53:03.916Z,6.70
2022-09-10T04:55:30.915Z,6.50
2022-09-10T04:57:57.394Z,9.73
2022-09-10T05:00:23.755Z,4.10
2022-09-10T05:02:50.158Z,6.18
2022-09-10T05:05:17.382Z,8.10
2022-09-10T05:07:44.101Z,8.00
2022-09-10T05:10:10.604Z,6.07
2022-09-10T05:12:38.677Z,5.65
2022-09-10T05:15:08.367Z,7.55
2022-09-10T05:17:36.002Z,6.43
2022-09-10T05:20:05.882Z,7.95
2022-09-10T05:22:40.350Z,7.13
2022-09-10T05:25:07.467Z,6.45
2022-09-10T05:27:34.340Z,10.10
2022-09-10T05:30:02.162Z,6.05
2022-09-10T05:32:31.404Z,5.53
2022-09-10T05:34:57.769Z,5.18
2022-09-10T05:37:24.536Z,5.60
2022-09-10T05:39:52.021Z,4.90
2022-09-10T05:42:22.164Z,6.88
2022-09-10T05:44:48.659Z,5.28
2022-09-10T05:47:15.440Z,8.07
2022-09-10T05:49:42.853Z,4.57
2022-09-10T05:52:09.575Z,6.78
2022-09-10T05:54:36.410Z,6.18
2022-09-10T05:57:02.778Z,8.60
2022-09-10T05:59:30.442Z,3.88
2022-09-10T06:01:58.133Z,6.97
2022-09-10T06:04:25.114Z,5.22
2022-09-10T06:06:54.259Z,3.85
2022-09-10T06:09:20.993Z,3.92
2022-09-10T06:11:54.777Z,7.95
2022-09-10T06:14:22.430Z,4.45
2022-09-10T06:16:49.923Z,4.28
2022-09-10T06:19:16.404Z,6.15
2022-09-10T06:21:42.993Z,6.18
2022-09-10T06:24:09.539Z,5.10
2022-09-10T06:26:37.973Z,5.07
2022-09-10T06:31:37.433Z,3.28
2022-09-10T06:34:08.106Z,2.63
2022-09-10T06:36:36.632Z,4.35
2022-09-10T06:39:03.900Z,3.10
2022-09-10T06:41:39.929Z,4.35
2022-09-10T06:44:13.271Z,3.33
2022-09-10T06:49:40.154Z,4.18
2022-09-10T06:52:06.976Z,4.72
2022-09-10T06:54:37.401Z,4.25
2022-09-10T06:57:18.582Z,3.70
2022-09-10T06:59:45.524Z,3.88
2022-09-10T07:02:12.940Z,3.15
2022-09-10T07:04:40.139Z,3.83
2022-09-10T07:07:10.250Z,3.72
2022-09-10T07:09:38.964Z,3.88
2022-09-10T07:12:07.281Z,6.57
2022-09-10T07:14:36.445Z,4.78
2022-09-10T07:17:06.594Z,4.10
2022-09-10T07:19:38.870Z,3.88
2022-09-10T07:22:39.510Z,5.68
2022-09-10T07:25:13.673Z,3.60
2022-09-10T07:28:02.510Z,5.20
2022-09-10T07:30:39.351Z,4.28
2022-09-10T07:33:07.217Z,3.15
2022-09-10T07:35:40.575Z,4.40
2022-09-10T07:38:14.045Z,4.10
2022-09-10T07:40:43.684Z,4.05
2022-09-10T07:43:10.549Z,4.90
2022-09-10T07:45:37.500Z,4.70
2022-09-10T07:48:04.963Z,3.40
2022-09-10T07:50:36.144Z,8.55
2022-09-10T07:53:02.906Z,3.58
2022-09-10T07:55:31.529Z,7.63
2022-09-10T07:58:00.250Z,4.50
2022-09-10T08:00:29.250Z,5.22
2022-09-10T08:02:59.227Z,2.90
2022-09-10T08:05:26.996Z,3.03
2022-09-10T08:07:59.772Z,3.20
2022-09-10T08:10:27.202Z,5.80
2022-09-10T08:12:53.532Z,4.90
2022-09-10T08:15:21.237Z,3.45
2022-09-10T08:17:47.801Z,4.38
2022-09-10T08:20:18.960Z,2.20
2022-09-10T08:22:48.821Z,3.10
2022-09-10T08:25:15.498Z,2.97
2022-09-10T08:27:42.871Z,6.00
2022-09-10T08:30:10.182Z,3.20
2022-09-10T08:32:37.515Z,3.15
2022-09-10T08:35:05.981Z,3.50
2022-09-10T08:37:34.424Z,3.45
2022-09-10T08:40:03.471Z,2.72
2022-09-10T08:42:50.405Z,3.40
2022-09-10T08:45:24.144Z,4.40
2022-09-10T08:47:57.309Z,7.47
2022-09-10T08:50:23.767Z,2.03
2022-09-10T08:52:54.345Z,3.92
2022-09-10T08:55:26.937Z,3.28
2022-09-10T08:58:00.035Z,3.42
2022-09-10T09:00:36.823Z,3.50
2022-09-10T09:03:10.769Z,3.53
2022-09-10T09:05:45.422Z,4.88
2022-09-10T09:08:15.165Z,4.55
2022-09-10T09:10:45.727Z,2.65
2022-09-10T09:13:12.328Z,2.70
2022-09-10T09:15:48.059Z,3.72
2022-09-10T09:18:25.587Z,4.35
2022-09-10T09:20:56.509Z,4.28
2022-09-10T09:23:26.260Z,3.35
2022-09-10T09:25:56.758Z,4.70
2022-09-10T09:28:32.408Z,5.57
2022-09-10T09:30:59.964Z,2.58
2022-09-10T09:33:29.066Z,2.35
2022-09-10T09:35:57.790Z,3.28
2022-09-10T09:38:30.952Z,3.08
2022-09-10T09:41:00.451Z,4.18
2022-09-10T09:43:42.862Z,2.90
2022-09-10T09:46:21.090Z,2.30
2022-09-10T09:48:55.544Z,3.00
2022-09-10T09:51:25.781Z,4.15
2022-09-10T09:54:18.530Z,3.30
2022-09-10T09:56:43.049Z,3.25
2022-09-10T09:59:21.885Z,3.13
2022-09-10T10:01:48.587Z,5.13
2022-09-10T10:04:23.213Z,4.50
2022-09-10T10:06:57.478Z,4.32
2022-09-10T10:09:26.834Z,2.20
2022-09-10T10:11:55.198Z,4.13
2022-09-10T10:14:26.504Z,5.57
2022-09-10T10:16:59.931Z,3.10
2022-09-10T10:19:29.076Z,4.95
2022-09-10T10:21:55.570Z,3.58
2022-09-10T10:24:32.386Z,3.45
2022-09-10T10:26:59.404Z,3.42
2022-09-10T10:29:26.161Z,5.15
2022-09-10T10:31:53.582Z,2.28
2022-09-10T10:34:28.601Z,2.78
2022-09-10T10:37:02.639Z,2.58
2022-09-10T10:39:31.992Z,2.03
2022-09-10T10:42:10.345Z,1.88
2022-09-10T10:44:55.250Z,3.47
2022-09-10T10:47:41.271Z,5.35
2022-09-10T10:50:13.933Z,2.75
2022-09-10T10:53:04.175Z,4.10
2022-09-10T10:55:35.788Z,3.22
2022-09-10T10:58:13.191Z,2.78
2022-09-10T11:00:51.794Z,4.00
2022-09-10T11:03:27.308Z,3.17
2022-09-10T11:06:03.740Z,2.90
2022-09-10T11:08:50.849Z,2.95
2022-09-10T11:11:17.256Z,1.80
2022-09-10T11:13:46.281Z,3.33
2022-09-10T11:16:20.298Z,4.88
2022-09-10T11:18:58.988Z,3.42
2022-09-10T11:21:25.920Z,2.08
2022-09-10T11:23:56.266Z,2.35
2022-09-10T11:26:43.431Z,2.05
2022-09-10T11:29:10.836Z,2.80
2022-09-10T11:31:42.861Z,2.58
2022-09-10T11:34:19.052Z,2.72
2022-09-10T11:36:54.854Z,2.67
2022-09-10T11:39:30.777Z,2.28
2022-09-10T11:41:58.725Z,2.17
2022-09-10T11:44:44.785Z,2.47
2022-09-10T11:47:31.953Z,3.33
2022-09-10T11:50:07.021Z,2.97
2022-09-10T11:52:35.175Z,1.52
2022-09-10T11:55:03.741Z,2.10
2022-09-10T11:57:48.999Z,2.97
2022-09-10T12:00:16.869Z,3.08
2022-09-10T12:02:46.595Z,2.58
2022-09-10T12:05:12.995Z,1.63
2022-09-10T12:07:42.508Z,2.88
2022-09-10T12:10:18.770Z,2.95
2022-09-10T12:12:53.234Z,2.85
2022-09-10T12:15:21.194Z,4.13
2022-09-10T12:17:56.612Z,3.08
2022-09-10T12:20:27.994Z,1.70
2022-09-10T12:22:56.650Z,2.55
2022-09-10T12:25:34.199Z,1.83
2022-09-10T12:28:02.795Z,3.22
2022-09-10T12:30:29.362Z,2.83
2022-09-10T12:32:59.144Z,2.88
2022-09-10T12:35:42.617Z,2.33
2022-09-10T12:38:27.944Z,3.45
2022-09-10T12:40:56.276Z,2.50
2022-09-10T12:43:41.206Z,3.60
2022-09-10T12:46:10.534Z,2.63
2022-09-10T12:48:39.962Z,2.03
2022-09-10T12:51:13.373Z,1.15
2022-09-10T12:53:48.552Z,1.05
2022-09-10T12:56:31.121Z,1.52
2022-09-10T12:59:17.314Z,1.15
2022-09-10T13:01:46.346Z,1.05
2022-09-10T13:04:29.644Z,0.93
2022-09-10T13:07:01.487Z,1.98
2022-09-10T13:09:37.788Z,1.45
2022-09-10T13:12:06.554Z,2.17
2022-09-10T13:14:38.688Z,2.17
2022-09-10T13:17:05.293Z,2.67
2022-09-10T13:19:31.616Z,2.75
2022-09-10T13:21:58.172Z,1.85
2022-09-10T13:24:32.322Z,1.52
2022-09-10T13:27:19.051Z,1.35
2022-09-10T13:29:47.495Z,2.83
2022-09-10T13:32:27.226Z,3.05
2022-09-10T13:34:53.589Z,3.25
2022-09-10T13:37:33.193Z,1.65
2022-09-10T13:40:19.142Z,2.40
2022-09-10T13:43:05.816Z,1.50
2022-09-10T13:45:40.664Z,4.05
2022-09-10T13:48:10.186Z,1.45
2022-09-10T13:50:49.270Z,2.50
2022-09-10T13:53:17.323Z,2.08
2022-09-10T13:55:53.753Z,3.38
2022-09-10T13:58:21.226Z,1.98
2022-09-10T14:00:54.363Z,2.25
2022-09-10T14:03:25.504Z,3.08
2022-09-10T14:06:04.185Z,3.40
2022-09-10T14:08:34.257Z,16.17
2022-09-10T14:11:06.470Z,1.80
2022-09-10T14:13:51.988Z,6.03
2022-09-10T14:16:21.180Z,5.38
2022-09-10T14:18:53.625Z,1.60
2022-09-10T14:21:27.078Z,3.17
2022-09-10T14:23:55.312Z,2.83
2022-09-10T14:26:26.498Z,2.35
2022-09-10T14:28:52.997Z,3.10
2022-09-10T14:31:27.959Z,2.45
2022-09-10T14:34:04.891Z,1.70
2022-09-10T14:36:33.625Z,2.13
2022-09-10T14:39:03.059Z,1.52
2022-09-10T14:41:30.946Z,2.40
2022-09-10T14:44:16.222Z,2.88
2022-09-10T14:46:51.299Z,4.38
2022-09-10T14:49:19.204Z,2.22
2022-09-10T14:51:45.796Z,1.98
2022-09-10T14:54:12.884Z,8.05
2022-09-10T14:56:40.955Z,2.17
2022-09-10T14:59:13.318Z,2.85
2022-09-10T15:01:43.428Z,3.65
2022-09-10T15:04:17.464Z,3.75
2022-09-10T15:06:44.007Z,4.25
2022-09-10T15:09:14.820Z,2.75
2022-09-10T15:14:10.609Z,4.68
2022-09-10T15:16:37.725Z,2.28
2022-09-10T15:19:04.062Z,2.40
2022-09-10T15:21:35.770Z,5.15
2022-09-10T15:24:02.341Z,2.42
2022-09-10T15:26:28.834Z,3.15
2022-09-10T15:28:55.156Z,2.58
2022-09-10T15:31:23.320Z,1.75
2022-09-10T15:33:49.740Z,3.03
2022-09-10T15:36:16.133Z,4.03
2022-09-10T15:38:42.697Z,2.67
2022-09-10T15:41:17.471Z,2.25
2022-09-10T15:43:45.236Z,3.13
2022-09-10T15:46:12.833Z,2.30
2022-09-10T15:48:39.769Z,2.47
2022-09-10T15:51:09.130Z,4.15
2022-09-10T15:53:35.965Z,4.07
2022-09-10T15:56:03.422Z,3.45
2022-09-10T15:58:30.149Z,2.45
2022-09-10T16:01:10.069Z,2.67
2022-09-10T16:03:36.880Z,3.87
2022-09-10T16:06:04.888Z,2.97
2022-09-10T16:08:31.446Z,3.15
2022-09-10T16:10:58.070Z,3.67
2022-09-10T16:13:25.964Z,2.58
2022-09-10T16:16:02.742Z,4.00
2022-09-10T16:18:29.943Z,5.07
2022-09-10T16:20:56.399Z,5.00
2022-09-10T16:23:22.905Z,5.85
2022-09-10T16:25:52.924Z,4.70
2022-09-10T16:28:19.453Z,3.03
2022-09-10T16:30:46.329Z,3.20
2022-09-10T16:33:13.946Z,4.18
2022-09-10T16:35:40.257Z,3.95
2022-09-10T16:38:06.913Z,4.53
2022-09-10T16:40:33.303Z,4.10
2022-09-10T16:42:59.853Z,3.47
2022-09-10T16:45:26.256Z,5.65
2022-09-10T16:47:54.196Z,3.80
2022-09-10T16:50:20.819Z,4.38
2022-09-10T16:52:49.220Z,4.28
2022-09-10T16:55:16.281Z,3.38
2022-09-10T16:57:42.604Z,4.05
2022-09-10T17:00:10.841Z,4.38
2022-09-10T17:02:37.875Z,5.05
2022-09-10T17:05:04.686Z,4.50
2022-09-10T17:07:31.135Z,4.47
2022-09-10T17:10:00.676Z,4.07
2022-09-10T17:12:27.765Z,4.07
2022-09-10T17:14:54.153Z,3.65
2022-09-10T17:17:20.519Z,4.07
2022-09-10T17:19:46.907Z,3.88
2022-09-10T17:22:13.879Z,5.90
2022-09-10T17:24:40.298Z,6.47
2022-09-10T17:27:06.955Z,3.72
2022-09-10T17:29:33.365Z,6.38
2022-09-10T17:31:59.838Z,5.65
2022-09-10T17:34:27.269Z,3.88
2022-09-10T17:36:54.101Z,3.80
2022-09-10T17:39:20.632Z,6.43
2022-09-10T17:41:47.906Z,3.15
2022-09-10T17:44:14.693Z,4.88
2022-09-10T17:46:42.731Z,4.85
2022-09-10T17:49:12.102Z,5.75
2022-09-10T17:51:38.462Z,4.22
2022-09-10T17:54:04.862Z,3.40
2022-09-10T17:56:31.318Z,5.25
2022-09-10T17:58:59.371Z,4.45
2022-09-10T18:01:27.484Z,4.38
2022-09-10T18:03:54.197Z,4.70
2022-09-10T18:06:21.658Z,4.97
2022-09-10T18:08:48.382Z,6.35
2022-09-10T18:11:16.494Z,8.55
2022-09-10T18:13:44.388Z,5.63
2022-09-10T18:16:12.562Z,5.50
2022-09-10T18:18:39.554Z,5.53
2022-09-10T18:21:13.211Z,4.82
2022-09-10T18:23:41.328Z,6.82
2022-09-10T18:26:19.306Z,5.70
2022-09-10T18:28:52.474Z,4.82
2022-09-10T18:31:18.950Z,5.63
2022-09-10T18:33:45.330Z,5.80
2022-09-10T18:36:13.603Z,5.15
2022-09-10T18:38:41.103Z,8.07
2022-09-10T18:41:21.222Z,5.43
2022-09-10T18:43:48.587Z,6.05
2022-09-10T18:46:15.071Z,6.43
2022-09-10T18:48:41.952Z,7.47
2022-09-10T18:51:10.702Z,7.78
2022-09-10T18:53:41.421Z,5.90
2022-09-10T18:56:08.006Z,7.28
2022-09-10T18:58:35.931Z,5.85
2022-09-10T19:01:06.953Z,5.60
2022-09-10T19:06:02.161Z,6.50
2022-09-10T19:08:28.537Z,6.35
2022-09-10T19:10:58.750Z,8.70
2022-09-10T19:13:25.251Z,7.37
2022-09-10T19:15:55.858Z,6.13
2022-09-10T19:20:53.037Z,7.47
2022-09-10T19:23:20.594Z,7.90
2022-09-10T19:25:51.651Z,7.43
2022-09-10T19:28:18.326Z,7.57
2022-09-10T19:30:44.700Z,7.10
2022-09-10T19:33:11.199Z,8.82
2022-09-10T19:35:37.526Z,7.57
2022-09-10T19:38:21.136Z,7.05
2022-09-10T19:40:50.285Z,7.35
2022-09-10T19:43:16.658Z,8.18
2022-09-10T19:45:43.850Z,7.63
2022-09-10T19:48:10.249Z,8.20
2022-09-10T19:50:39.873Z,5.82
2022-09-10T19:53:06.221Z,7.00
2022-09-10T19:55:32.651Z,7.68
2022-09-10T19:57:59.995Z,6.72
2022-09-10T20:00:45.770Z,7.68
2022-09-10T20:03:13.567Z,7.55
2022-09-10T20:05:42.500Z,8.90
2022-09-10T20:08:09.798Z,7.85
2022-09-10T20:10:37.653Z,7.00
2022-09-10T20:13:04.698Z,8.80
2022-09-10T20:15:32.054Z,8.05
2022-09-10T20:17:58.518Z,7.25
2022-09-10T20:20:24.939Z,11.45
2022-09-10T20:22:51.693Z,8.10
2022-09-10T20:25:18.100Z,10.00
2022-09-10T20:27:44.418Z,8.35
2022-09-10T20:30:10.896Z,7.57
2022-09-10T20:32:37.211Z,10.63
2022-09-10T20:35:03.759Z,8.98
2022-09-10T20:37:30.099Z,8.32
2022-09-10T20:39:56.663Z,10.55
2022-09-10T20:42:27.715Z,9.27
2022-09-10T20:47:24.180Z,7.90
2022-09-10T20:49:50.586Z,8.98
2022-09-10T20:52:17.490Z,9.95
2022-09-10T20:54:43.850Z,7.75
2022-09-10T20:57:11.441Z,11.00
2022-09-10T20:59:37.924Z,8.65
2022-09-10T21:02:04.570Z,10.93
2022-09-10T21:04:32.155Z,11.00
2022-09-10T21:06:59.037Z,9.45
2022-09-10T21:09:25.405Z,8.20
2022-09-10T21:11:51.766Z,11.75
2022-09-10T21:14:18.681Z,9.27
2022-09-10T21:16:47.150Z,10.48
2022-09-10T21:19:14.654Z,9.35
2022-09-10T21:21:41.784Z,10.80
2022-09-10T21:24:10.523Z,9.45
2022-09-10T21:26:39.362Z,10.43
2022-09-10T21:29:11.534Z,8.13
2022-09-10T21:31:40.316Z,9.15
2022-09-10T21:34:07.031Z,11.52
2022-09-10T21:36:37.222Z,10.73
2022-09-10T21:39:04.870Z,11.15
2022-09-10T21:41:32.391Z,10.75
2022-09-10T21:43:59.823Z,10.07
2022-09-10T21:46:27.261Z,10.70
2022-09-10T21:48:53.849Z,8.73
2022-09-10T21:51:20.618Z,7.93
2022-09-10T21:53:47.735Z,9.77
2022-09-10T21:56:20.727Z,8.60
2022-09-10T21:58:47.114Z,9.00
2022-09-10T22:01:15.249Z,9.63
2022-09-10T22:03:41.653Z,10.48
2022-09-10T22:06:09.200Z,9.13
2022-09-10T22:08:36.171Z,9.13
2022-09-10T22:11:07.365Z,10.95
2022-09-10T22:16:00.509Z,9.68
2022-09-10T22:18:26.849Z,10.38
2022-09-10T22:21:00.653Z,12.32
2022-09-10T22:23:31.339Z,10.23
2022-09-10T22:26:04.324Z,10.63
2022-09-10T22:28:34.620Z,8.98
2022-09-10T22:31:12.022Z,11.50
2022-09-10T22:33:39.239Z,11.07
2022-09-10T22:36:09.241Z,10.07
2022-09-10T22:38:35.675Z,9.13
2022-09-10T22:41:03.274Z,10.82
2022-09-10T22:43:29.853Z,12.48
2022-09-10T22:45:56.390Z,11.63
2022-09-10T22:48:22.763Z,8.35
2022-09-10T22:50:49.285Z,11.70
2022-09-10T22:53:16.385Z,9.38
2022-09-10T22:55:42.708Z,8.63
2022-09-10T22:58:10.036Z,9.48
2022-09-10T23:00:36.625Z,10.20
2022-09-10T23:03:04.737Z,8.57
2022-09-10T23:05:31.296Z,9.68
2022-09-10T23:07:57.697Z,8.75
2022-09-10T23:10:24.309Z,8.50
2022-09-10T23:12:50.643Z,10.52
2022-09-10T23:15:16.968Z,10.02
2022-09-10T23:17:43.295Z,8.68
2022-09-10T23:20:09.875Z,9.43
2022-09-10T23:22:36.215Z,9.32
2022-09-10T23:25:02.540Z,10.18
2022-09-10T23:27:28.931Z,11.80
2022-09-10T23:29:56.567Z,12.75
2022-09-10T23:32:22.891Z,9.80
2022-09-10T23:34:50.489Z,13.18
2022-09-10T23:37:17.445Z,9.52
2022-09-10T23:39:43.813Z,10.45
2022-09-10T23:42:10.209Z,9.00
2022-09-10T23:44:36.738Z,8.88
2022-09-10T23:47:03.126Z,10.30
2022-09-10T23:49:29.483Z,10.32
2022-09-10T23:51:55.837Z,10.60
2022-09-10T23:54:22.307Z,10.48
2022-09-10T23:56:48.628Z,13.43
2022-09-10T23:59:15.382Z,8.73
